sensor_id;sensor_type;location;lat;lon;timestamp;pressure;altitude;pressure_sealevel;temperature;humidity
50484;BME280;36409;52.168;20.878;2023-01-26T00:00:51;101384.49;;;-0.70;81.16
50484;BME280;36409;52.168;20.878;2023-01-26T00:03:23;101381.92;;;-0.70;81.53
50484;BME280;36409;52.168;20.878;2023-01-26T00:05:53;101377.70;;;-0.69;81.18
50484;BME280;36409;52.168;20.878;2023-01-26T00:08:23;101386.25;;;-0.69;81.50
50484;BME280;36409;52.168;20.878;2023-01-26T00:10:54;101383.75;;;-0.67;81.23
50484;BME280;36409;52.168;20.878;2023-01-26T00:13:24;101383.84;;;-0.66;82.06
50484;BME280;36409;52.168;20.878;2023-01-26T00:15:53;101377.02;;;-0.65;82.12
50484;BME280;36409;52.168;20.878;2023-01-26T00:18:24;101378.77;;;-0.64;81.35
50484;BME280;36409;52.168;20.878;2023-01-26T00:20:56;101376.21;;;-0.64;80.94
50484;BME280;36409;52.168;20.878;2023-01-26T00:23:26;101372.78;;;-0.65;80.95
50484;BME280;36409;52.168;20.878;2023-01-26T00:25:56;101372.78;;;-0.65;81.41
50484;BME280;36409;52.168;20.878;2023-01-26T00:28:25;101370.28;;;-0.63;81.66
50484;BME280;36409;52.168;20.878;2023-01-26T00:31:02;101373.59;;;-0.66;81.29
50484;BME280;36409;52.168;20.878;2023-01-26T00:33:32;101372.84;;;-0.63;81.16
50484;BME280;36409;52.168;20.878;2023-01-26T00:36:01;101375.41;;;-0.63;80.90
50484;BME280;36409;52.168;20.878;2023-01-26T00:38:30;101368.61;;;-0.63;81.04
50484;BME280;36409;52.168;20.878;2023-01-26T00:40:59;101368.61;;;-0.63;81.63
50484;BME280;36409;52.168;20.878;2023-01-26T00:43:29;101367.71;;;-0.63;81.21
50484;BME280;36409;52.168;20.878;2023-01-26T00:45:59;101366.05;;;-0.63;81.00
50484;BME280;36409;52.168;20.878;2023-01-26T00:48:28;101358.35;;;-0.63;81.08
50484;BME280;36409;52.168;20.878;2023-01-26T00:50:57;101361.78;;;-0.62;81.53
50484;BME280;36409;52.168;20.878;2023-01-26T00:53:27;101354.14;;;-0.60;81.92
50484;BME280;36409;52.168;20.878;2023-01-26T00:55:56;101356.80;;;-0.59;81.54
50484;BME280;36409;52.168;20.878;2023-01-26T00:58:26;101353.34;;;-0.59;81.61
50484;BME280;36409;52.168;20.878;2023-01-26T01:00:57;101353.34;;;-0.59;81.22
50484;BME280;36409;52.168;20.878;2023-01-26T01:03:26;101360.23;;;-0.58;81.79
50484;BME280;36409;52.168;20.878;2023-01-26T01:05:55;101361.12;;;-0.58;81.63
50484;BME280;36409;52.168;20.878;2023-01-26T01:08:26;101353.34;;;-0.59;81.84
50484;BME280;36409;52.168;20.878;2023-01-26T01:11:03;101360.17;;;-0.60;81.28
50484;BME280;36409;52.168;20.878;2023-01-26T01:13:33;101355.84;;;-0.61;81.28
50484;BME280;36409;52.168;20.878;2023-01-26T01:16:06;101356.80;;;-0.59;81.34
50484;BME280;36409;52.168;20.878;2023-01-26T01:18:39;101356.80;;;-0.59;81.66
50484;BME280;36409;52.168;20.878;2023-01-26T01:21:12;101352.63;;;-0.57;82.15
50484;BME280;36409;52.168;20.878;2023-01-26T01:23:43;101343.23;;;-0.56;81.14
50484;BME280;36409;52.168;20.878;2023-01-26T01:26:13;101346.76;;;-0.54;81.49
50484;BME280;36409;52.168;20.878;2023-01-26T01:28:44;101341.53;;;-0.56;81.15
50484;BME280;36409;52.168;20.878;2023-01-26T01:31:15;101337.36;;;-0.54;81.04
50484;BME280;36409;52.168;20.878;2023-01-26T01:33:44;101325.34;;;-0.55;81.70
50484;BME280;36409;52.168;20.878;2023-01-26T01:36:15;101311.65;;;-0.55;81.44
50484;BME280;36409;52.168;20.878;2023-01-26T01:38:45;101313.32;;;-0.56;81.95
50484;BME280;36409;52.168;20.878;2023-01-26T01:41:17;101308.19;;;-0.56;81.21
50484;BME280;36409;52.168;20.878;2023-01-26T01:43:47;101298.77;;;-0.57;81.36
50484;BME280;36409;52.168;20.878;2023-01-26T01:46:23;101301.33;;;-0.57;81.96
50484;BME280;36409;52.168;20.878;2023-01-26T01:48:58;101293.64;;;-0.57;81.95
50484;BME280;36409;52.168;20.878;2023-01-26T01:51:34;101293.64;;;-0.57;81.56
50484;BME280;36409;52.168;20.878;2023-01-26T01:54:13;101288.51;;;-0.57;81.93
50484;BME280;36409;52.168;20.878;2023-01-26T01:56:46;101287.61;;;-0.57;81.89
50484;BME280;36409;52.168;20.878;2023-01-26T01:59:16;101284.19;;;-0.58;81.41
50484;BME280;36409;52.168;20.878;2023-01-26T02:01:48;101278.25;;;-0.57;81.67
50484;BME280;36409;52.168;20.878;2023-01-26T02:04:20;101271.36;;;-0.58;81.24
50484;BME280;36409;52.168;20.878;2023-01-26T02:06:53;101272.16;;;-0.59;81.83
50484;BME280;36409;52.168;20.878;2023-01-26T02:09:29;101275.44;;;-0.62;81.35
50484;BME280;36409;52.168;20.878;2023-01-26T02:12:20;101276.34;;;-0.61;82.19
50484;BME280;36409;52.168;20.878;2023-01-26T02:14:50;101278.01;;;-0.62;81.17
50484;BME280;36409;52.168;20.878;2023-01-26T02:17:22;101270.31;;;-0.62;81.17
50484;BME280;36409;52.168;20.878;2023-01-26T02:20:03;101274.58;;;-0.62;81.45
50484;BME280;36409;52.168;20.878;2023-01-26T02:22:40;101268.64;;;-0.61;82.02
50484;BME280;36409;52.168;20.878;2023-01-26T02:25:19;101263.57;;;-0.59;81.30
50484;BME280;36409;52.168;20.878;2023-01-26T02:27:54;101264.47;;;-0.59;82.13
50484;BME280;36409;52.168;20.878;2023-01-26T02:30:24;101262.77;;;-0.58;81.27
50484;BME280;36409;52.168;20.878;2023-01-26T02:32:56;101255.16;;;-0.57;82.10
50484;BME280;36409;52.168;20.878;2023-01-26T02:35:25;101248.27;;;-0.58;82.15
50484;BME280;36409;52.168;20.878;2023-01-26T02:37:55;101251.76;;;-0.56;81.94
50484;BME280;36409;52.168;20.878;2023-01-26T02:40:35;101258.59;;;-0.56;81.34
50484;BME280;36409;52.168;20.878;2023-01-26T02:43:06;101246.58;;;-0.57;81.33
50484;BME280;36409;52.168;20.878;2023-01-26T02:45:39;101244.01;;;-0.57;81.51
50484;BME280;36409;52.168;20.878;2023-01-26T02:48:09;101243.20;;;-0.56;81.39
50484;BME280;36409;52.168;20.878;2023-01-26T02:50:41;101241.50;;;-0.56;81.30
50484;BME280;36409;52.168;20.878;2023-01-26T02:53:13;101239.83;;;-0.55;81.61
50484;BME280;36409;52.168;20.878;2023-01-26T02:55:43;101238.13;;;-0.55;81.57
50484;BME280;36409;52.168;20.878;2023-01-26T02:58:15;101237.32;;;-0.54;81.70
50484;BME280;36409;52.168;20.878;2023-01-26T03:00:44;101229.63;;;-0.54;81.46
50484;BME280;36409;52.168;20.878;2023-01-26T03:03:16;101223.69;;;-0.53;82.20
50484;BME280;36409;52.168;20.878;2023-01-26T03:05:46;101219.45;;;-0.52;81.66
50484;BME280;36409;52.168;20.878;2023-01-26T03:08:16;101220.37;;;-0.50;82.26
50484;BME280;36409;52.168;20.878;2023-01-26T03:10:45;101222.94;;;-0.50;81.60
50484;BME280;36409;52.168;20.878;2023-01-26T03:13:15;101218.70;;;-0.50;81.70
50484;BME280;36409;52.168;20.878;2023-01-26T03:15:45;101213.58;;;-0.50;82.07
50484;BME280;36409;52.168;20.878;2023-01-26T03:18:21;101215.25;;;-0.50;82.31
50484;BME280;36409;52.168;20.878;2023-01-26T03:21:13;101212.68;;;-0.50;81.47
50484;BME280;36409;52.168;20.878;2023-01-26T03:24:02;101205.08;;;-0.49;82.25
50484;BME280;36409;52.168;20.878;2023-01-26T03:26:53;101203.31;;;-0.50;81.56
50484;BME280;36409;52.168;20.878;2023-01-26T03:29:41;101197.38;;;-0.49;81.81
50484;BME280;36409;52.168;20.878;2023-01-26T03:32:12;101194.81;;;-0.49;81.36
50484;BME280;36409;52.168;20.878;2023-01-26T03:34:42;101196.57;;;-0.48;81.40
50484;BME280;36409;52.168;20.878;2023-01-26T03:37:12;101188.88;;;-0.48;82.42
50484;BME280;36409;52.168;20.878;2023-01-26T03:39:54;101187.92;;;-0.50;82.01
50484;BME280;36409;52.168;20.878;2023-01-26T03:42:42;101179.33;;;-0.50;81.79
50484;BME280;36409;52.168;20.878;2023-01-26T03:45:30;101183.66;;;-0.49;81.47
50484;BME280;36409;52.168;20.878;2023-01-26T03:48:19;101183.66;;;-0.49;81.42
50484;BME280;36409;52.168;20.878;2023-01-26T03:51:07;101177.72;;;-0.48;82.23
50484;BME280;36409;52.168;20.878;2023-01-26T03:53:55;101172.59;;;-0.48;82.30
50484;BME280;36409;52.168;20.878;2023-01-26T03:56:43;101173.48;;;-0.48;81.50
50484;BME280;36409;52.168;20.878;2023-01-26T03:59:16;101170.97;;;-0.46;82.34
50484;BME280;36409;52.168;20.878;2023-01-26T04:01:46;101166.73;;;-0.45;82.24
50484;BME280;36409;52.168;20.878;2023-01-26T04:04:36;101163.33;;;-0.44;81.59
50484;BME280;36409;52.168;20.878;2023-01-26T04:07:29;101159.91;;;-0.45;82.14
50484;BME280;36409;52.168;20.878;2023-01-26T04:10:17;101161.66;;;-0.44;82.27
50484;BME280;36409;52.168;20.878;2023-01-26T04:12:46;101155.64;;;-0.44;82.31
50484;BME280;36409;52.168;20.878;2023-01-26T04:15:35;101151.34;;;-0.45;82.41
50484;BME280;36409;52.168;20.878;2023-01-26T04:18:23;101154.78;;;-0.45;82.22
50484;BME280;36409;52.168;20.878;2023-01-26T04:21:12;101160.77;;;-0.44;81.88
50484;BME280;36409;52.168;20.878;2023-01-26T04:24:00;101164.23;;;-0.44;81.54
50484;BME280;36409;52.168;20.878;2023-01-26T04:26:40;101170.22;;;-0.43;81.75
50484;BME280;36409;52.168;20.878;2023-01-26T04:29:15;101163.42;;;-0.43;81.68
50484;BME280;36409;52.168;20.878;2023-01-26T04:31:46;101168.61;;;-0.41;82.07
50484;BME280;36409;52.168;20.878;2023-01-26T04:34:19;101159.15;;;-0.42;82.22
50484;BME280;36409;52.168;20.878;2023-01-26T04:36:49;101170.22;;;-0.43;82.41
50484;BME280;36409;52.168;20.878;2023-01-26T04:39:22;101160.77;;;-0.44;81.81
50484;BME280;36409;52.168;20.878;2023-01-26T04:41:55;101165.90;;;-0.44;81.97
50484;BME280;36409;52.168;20.878;2023-01-26T04:44:26;101154.78;;;-0.45;82.05
50484;BME280;36409;52.168;20.878;2023-01-26T04:46:58;101158.14;;;-0.46;82.12
50484;BME280;36409;52.168;20.878;2023-01-26T04:49:36;101160.66;;;-0.48;81.61
50484;BME280;36409;52.168;20.878;2023-01-26T04:52:07;101163.33;;;-0.44;81.75
50484;BME280;36409;52.168;20.878;2023-01-26T04:54:37;101163.33;;;-0.44;82.15
50484;BME280;36409;52.168;20.878;2023-01-26T04:57:08;101154.83;;;-0.43;82.33
50484;BME280;36409;52.168;20.878;2023-01-26T04:59:47;101157.48;;;-0.42;82.30
50484;BME280;36409;52.168;20.878;2023-01-26T05:02:17;101148.89;;;-0.42;82.02
50484;BME280;36409;52.168;20.878;2023-01-26T05:04:46;101151.45;;;-0.42;81.81
50484;BME280;36409;52.168;20.878;2023-01-26T05:07:18;101142.00;;;-0.43;82.27
50484;BME280;36409;52.168;20.878;2023-01-26T05:09:48;101146.33;;;-0.42;82.19
50484;BME280;36409;52.168;20.878;2023-01-26T05:12:37;101143.76;;;-0.42;82.03
50484;BME280;36409;52.168;20.878;2023-01-26T05:15:40;101146.33;;;-0.42;82.31
50484;BME280;36409;52.168;20.878;2023-01-26T05:18:34;101141.20;;;-0.42;82.45
50484;BME280;36409;52.168;20.878;2023-01-26T05:21:14;101139.52;;;-0.42;81.72
50484;BME280;36409;52.168;20.878;2023-01-26T05:23:50;101133.58;;;-0.41;82.22
50484;BME280;36409;52.168;20.878;2023-01-26T05:26:38;101135.25;;;-0.41;81.92
50484;BME280;36409;52.168;20.878;2023-01-26T05:29:13;101139.52;;;-0.42;81.51
50484;BME280;36409;52.168;20.878;2023-01-26T05:31:44;101137.82;;;-0.41;82.52
50484;BME280;36409;52.168;20.878;2023-01-26T05:34:14;101137.02;;;-0.40;82.34
50484;BME280;36409;52.168;20.878;2023-01-26T05:36:44;101135.25;;;-0.41;82.33
50484;BME280;36409;52.168;20.878;2023-01-26T05:39:16;101134.45;;;-0.40;81.69
50484;BME280;36409;52.168;20.878;2023-01-26T05:41:45;101136.20;;;-0.39;81.97
50484;BME280;36409;52.168;20.878;2023-01-26T05:44:37;101131.07;;;-0.39;81.67
50484;BME280;36409;52.168;20.878;2023-01-26T05:47:15;101128.51;;;-0.39;81.79
50484;BME280;36409;52.168;20.878;2023-01-26T05:49:47;101133.64;;;-0.39;81.63
50484;BME280;36409;52.168;20.878;2023-01-26T05:52:21;101135.39;;;-0.38;81.82
50484;BME280;36409;52.168;20.878;2023-01-26T05:54:52;101146.52;;;-0.38;82.50
50484;BME280;36409;52.168;20.878;2023-01-26T05:57:21;101145.71;;;-0.37;82.09
50484;BME280;36409;52.168;20.878;2023-01-26T05:59:55;101143.95;;;-0.38;82.21
50484;BME280;36409;52.168;20.878;2023-01-26T06:02:29;101147.41;;;-0.37;81.81
50484;BME280;36409;52.168;20.878;2023-01-26T06:05:02;101156.87;;;-0.36;82.75
50484;BME280;36409;52.168;20.878;2023-01-26T06:07:35;101151.73;;;-0.36;82.11
50484;BME280;36409;52.168;20.878;2023-01-26T06:10:15;101149.17;;;-0.36;81.63
50484;BME280;36409;52.168;20.878;2023-01-26T06:13:10;101152.59;;;-0.36;81.74
50484;BME280;36409;52.168;20.878;2023-01-26T06:15:55;101144.04;;;-0.36;82.27
50484;BME280;36409;52.168;20.878;2023-01-26T06:18:31;101142.28;;;-0.37;81.98
50484;BME280;36409;52.168;20.878;2023-01-26T06:21:02;101144.77;;;-0.39;82.24
50484;BME280;36409;52.168;20.878;2023-01-26T06:23:32;101150.79;;;-0.38;81.57
50484;BME280;36409;52.168;20.878;2023-01-26T06:26:04;101149.08;;;-0.38;81.50
50484;BME280;36409;52.168;20.878;2023-01-26T06:28:37;101143.90;;;-0.39;81.57
50484;BME280;36409;52.168;20.878;2023-01-26T06:31:07;101145.66;;;-0.38;81.86
50484;BME280;36409;52.168;20.878;2023-01-26T06:33:40;101148.22;;;-0.38;81.62
50484;BME280;36409;52.168;20.878;2023-01-26T06:36:15;101143.09;;;-0.38;82.03
50484;BME280;36409;52.168;20.878;2023-01-26T06:38:48;101142.28;;;-0.37;82.74
50484;BME280;36409;52.168;20.878;2023-01-26T06:41:18;101140.52;;;-0.38;82.25
50484;BME280;36409;52.168;20.878;2023-01-26T06:43:48;101144.77;;;-0.39;81.61
50484;BME280;36409;52.168;20.878;2023-01-26T06:46:19;101143.09;;;-0.38;81.62
50484;BME280;36409;52.168;20.878;2023-01-26T06:48:50;101137.96;;;-0.38;81.91
50484;BME280;36409;52.168;20.878;2023-01-26T06:51:56;101138.83;;;-0.38;82.24
50484;BME280;36409;52.168;20.878;2023-01-26T06:54:51;101135.39;;;-0.38;82.33
50484;BME280;36409;52.168;20.878;2023-01-26T06:57:24;101127.75;;;-0.37;81.93
50484;BME280;36409;52.168;20.878;2023-01-26T07:00:17;101135.45;;;-0.37;82.67
50484;BME280;36409;52.168;20.878;2023-01-26T07:03:02;101137.15;;;-0.37;81.60
50484;BME280;36409;52.168;20.878;2023-01-26T07:05:32;101131.13;;;-0.38;81.91
50484;BME280;36409;52.168;20.878;2023-01-26T07:08:02;101126.08;;;-0.36;82.39
50484;BME280;36409;52.168;20.878;2023-01-26T07:10:35;101135.45;;;-0.37;82.53
50484;BME280;36409;52.168;20.878;2023-01-26T07:13:07;101131.13;;;-0.38;82.38
50484;BME280;36409;52.168;20.878;2023-01-26T07:15:36;101127.70;;;-0.38;82.30
50484;BME280;36409;52.168;20.878;2023-01-26T07:18:06;101127.64;;;-0.40;82.45
50484;BME280;36409;52.168;20.878;2023-01-26T07:20:36;101125.94;;;-0.39;82.64
50484;BME280;36409;52.168;20.878;2023-01-26T07:23:05;101131.13;;;-0.38;82.48
50484;BME280;36409;52.168;20.878;2023-01-26T07:25:34;101125.08;;;-0.40;82.39
50484;BME280;36409;52.168;20.878;2023-01-26T07:28:04;101120.86;;;-0.38;82.30
50484;BME280;36409;52.168;20.878;2023-01-26T07:30:37;101112.30;;;-0.38;82.69
50484;BME280;36409;52.168;20.878;2023-01-26T07:33:06;101118.38;;;-0.36;82.80
50484;BME280;36409;52.168;20.878;2023-01-26T07:35:35;101120.14;;;-0.35;82.31
50484;BME280;36409;52.168;20.878;2023-01-26T07:38:05;101116.68;;;-0.36;82.75
50484;BME280;36409;52.168;20.878;2023-01-26T07:40:35;101115.88;;;-0.35;82.44
50484;BME280;36409;52.168;20.878;2023-01-26T07:43:05;101108.17;;;-0.35;82.35
50484;BME280;36409;52.168;20.878;2023-01-26T07:45:50;101109.88;;;-0.35;81.70
50484;BME280;36409;52.168;20.878;2023-01-26T07:48:21;101112.44;;;-0.35;81.66
50484;BME280;36409;52.168;20.878;2023-01-26T07:50:51;101109.06;;;-0.34;81.62
50484;BME280;36409;52.168;20.878;2023-01-26T07:53:20;101106.50;;;-0.34;82.37
50484;BME280;36409;52.168;20.878;2023-01-26T07:55:50;101111.73;;;-0.31;82.32
50484;BME280;36409;52.168;20.878;2023-01-26T07:58:19;101108.45;;;-0.28;82.55
50484;BME280;36409;52.168;20.878;2023-01-26T08:00:49;101109.36;;;-0.26;82.64
50484;BME280;36409;52.168;20.878;2023-01-26T08:03:18;101112.88;;;-0.24;82.52
50484;BME280;36409;52.168;20.878;2023-01-26T08:05:47;101115.53;;;-0.23;81.70
50484;BME280;36409;52.168;20.878;2023-01-26T08:08:18;101109.64;;;-0.20;82.62
50484;BME280;36409;52.168;20.878;2023-01-26T08:10:50;101115.72;;;-0.18;81.74
50484;BME280;36409;52.168;20.878;2023-01-26T08:13:21;101111.50;;;-0.16;82.12
50484;BME280;36409;52.168;20.878;2023-01-26T08:16:04;101108.12;;;-0.15;81.81
50484;BME280;36409;52.168;20.878;2023-01-26T08:18:33;101108.12;;;-0.15;81.49
50484;BME280;36409;52.168;20.878;2023-01-26T08:21:04;101103.12;;;-0.12;82.30
50484;BME280;36409;52.168;20.878;2023-01-26T08:23:33;101108.39;;;-0.09;82.00
50484;BME280;36409;52.168;20.878;2023-01-26T08:26:05;101111.95;;;-0.05;82.31
50484;BME280;36409;52.168;20.878;2023-01-26T08:28:35;101109.52;;;-0.02;82.60
50484;BME280;36409;52.168;20.878;2023-01-26T08:31:05;101112.09;;;-0.02;81.60
50484;BME280;36409;52.168;20.878;2023-01-26T08:33:35;101106.95;;;-0.02;82.00
50484;BME280;36409;52.168;20.878;2023-01-26T08:36:11;101101.01;;;-0.01;81.67
50484;BME280;36409;52.168;20.878;2023-01-26T08:38:42;101101.92;;;0.01;82.39
50484;BME280;36409;52.168;20.878;2023-01-26T08:41:14;101099.36;;;0.01;81.38
50484;BME280;36409;52.168;20.878;2023-01-26T08:43:44;101096.92;;;0.04;82.00
50484;BME280;36409;52.168;20.878;2023-01-26T08:46:15;101094.41;;;0.06;81.98
50484;BME280;36409;52.168;20.878;2023-01-26T08:48:45;101101.24;;;0.05;82.32
50484;BME280;36409;52.168;20.878;2023-01-26T08:51:14;101110.66;;;0.05;81.86
50484;BME280;36409;52.168;20.878;2023-01-26T08:53:43;101103.81;;;0.05;81.48
50484;BME280;36409;52.168;20.878;2023-01-26T08:56:13;101117.51;;;0.06;82.24
50484;BME280;36409;52.168;20.878;2023-01-26T08:58:56;101115.02;;;0.07;82.21
50484;BME280;36409;52.168;20.878;2023-01-26T09:01:25;101115.97;;;0.09;82.06
50484;BME280;36409;52.168;20.878;2023-01-26T09:03:54;101121.97;;;0.10;81.78
50484;BME280;36409;52.168;20.878;2023-01-26T09:06:24;101116.83;;;0.10;81.07
50484;BME280;36409;52.168;20.878;2023-01-26T09:08:55;101116.88;;;0.11;81.06
50484;BME280;36409;52.168;20.878;2023-01-26T09:11:24;101121.28;;;0.14;82.08
50484;BME280;36409;52.168;20.878;2023-01-26T09:13:54;101120.48;;;0.15;81.15
50484;BME280;36409;52.168;20.878;2023-01-26T09:16:25;101130.80;;;0.17;81.09
50484;BME280;36409;52.168;20.878;2023-01-26T09:18:54;101126.42;;;0.14;81.73
50484;BME280;36409;52.168;20.878;2023-01-26T09:21:23;101130.66;;;0.13;81.96
50484;BME280;36409;52.168;20.878;2023-01-26T09:23:54;101131.56;;;0.14;81.01
50484;BME280;36409;52.168;20.878;2023-01-26T09:26:23;101140.94;;;0.13;81.08
50484;BME280;36409;52.168;20.878;2023-01-26T09:28:52;101133.13;;;0.10;80.86
50484;BME280;36409;52.168;20.878;2023-01-26T09:31:21;101127.91;;;0.09;81.17
50484;BME280;36409;52.168;20.878;2023-01-26T09:33:53;101127.16;;;0.11;81.70
50484;BME280;36409;52.168;20.878;2023-01-26T09:36:22;101122.09;;;0.13;81.47
50484;BME280;36409;52.168;20.878;2023-01-26T09:38:51;101124.66;;;0.13;80.80
50484;BME280;36409;52.168;20.878;2023-01-26T09:41:41;101121.28;;;0.14;81.51
50484;BME280;36409;52.168;20.878;2023-01-26T09:44:18;101116.20;;;0.15;81.69
50484;BME280;36409;52.168;20.878;2023-01-26T09:47:01;101110.20;;;0.15;81.78
50484;BME280;36409;52.168;20.878;2023-01-26T09:49:43;101111.87;;;0.14;80.93
50484;BME280;36409;52.168;20.878;2023-01-26T09:52:19;101104.17;;;0.14;80.71
50484;BME280;36409;52.168;20.878;2023-01-26T09:54:52;101104.13;;;0.13;81.27
50484;BME280;36409;52.168;20.878;2023-01-26T09:57:28;101104.98;;;0.13;81.37
50484;BME280;36409;52.168;20.878;2023-01-26T10:00:05;101107.50;;;0.12;81.60
50484;BME280;36409;52.168;20.878;2023-01-26T10:02:48;101098.98;;;0.13;81.01
50484;BME280;36409;52.168;20.878;2023-01-26T10:05:27;101100.80;;;0.15;81.40
50484;BME280;36409;52.168;20.878;2023-01-26T10:08:04;101090.66;;;0.19;81.46
50484;BME280;36409;52.168;20.878;2023-01-26T10:10:40;101099.30;;;0.21;80.69
50484;BME280;36409;52.168;20.878;2023-01-26T10:13:14;101091.70;;;0.24;80.59
50484;BME280;36409;52.168;20.878;2023-01-26T10:15:48;101087.63;;;0.29;81.07
50484;BME280;36409;52.168;20.878;2023-01-26T10:18:23;101078.34;;;0.33;81.48
50484;BME280;36409;52.168;20.878;2023-01-26T10:20:55;101078.48;;;0.36;80.61
50484;BME280;36409;52.168;20.878;2023-01-26T10:23:28;101080.15;;;0.35;81.10
50484;BME280;36409;52.168;20.878;2023-01-26T10:26:08;101083.53;;;0.34;81.01
50484;BME280;36409;52.168;20.878;2023-01-26T10:28:41;101074.92;;;0.32;80.37
50484;BME280;36409;52.168;20.878;2023-01-26T10:31:14;101068.13;;;0.34;80.64
50484;BME280;36409;52.168;20.878;2023-01-26T10:33:50;101064.73;;;0.35;81.22
50484;BME280;36409;52.168;20.878;2023-01-26T10:36:20;101065.55;;;0.34;80.79
50484;BME280;36409;52.168;20.878;2023-01-26T10:38:51;101054.47;;;0.35;81.21
50484;BME280;36409;52.168;20.878;2023-01-26T10:41:26;101064.82;;;0.37;81.11
50484;BME280;36409;52.168;20.878;2023-01-26T10:43:57;101056.98;;;0.34;80.99
50484;BME280;36409;52.168;20.878;2023-01-26T10:46:30;101059.60;;;0.35;80.02
50484;BME280;36409;52.168;20.878;2023-01-26T10:49:15;101055.36;;;0.36;80.24
50484;BME280;36409;52.168;20.878;2023-01-26T10:52:05;101055.41;;;0.37;81.06
50484;BME280;36409;52.168;20.878;2023-01-26T10:54:34;101050.39;;;0.40;80.09
50484;BME280;36409;52.168;20.878;2023-01-26T10:57:10;101042.81;;;0.43;80.77
50484;BME280;36409;52.168;20.878;2023-01-26T10:59:51;101033.52;;;0.47;80.77
50484;BME280;36409;52.168;20.878;2023-01-26T11:02:24;101033.65;;;0.50;80.07
50484;BME280;36409;52.168;20.878;2023-01-26T11:05:15;101021.70;;;0.52;80.90
50484;BME280;36409;52.168;20.878;2023-01-26T11:07:47;101022.72;;;0.56;80.24
50484;BME280;36409;52.168;20.878;2023-01-26T11:10:26;101010.91;;;0.61;81.05
50484;BME280;36409;52.168;20.878;2023-01-26T11:13:15;101017.84;;;0.64;80.75
50484;BME280;36409;52.168;20.878;2023-01-26T11:15:48;101012.70;;;0.64;80.15
50484;BME280;36409;52.168;20.878;2023-01-26T11:18:30;101013.52;;;0.63;79.85
50484;BME280;36409;52.168;20.878;2023-01-26T11:21:05;101013.48;;;0.61;80.56
50484;BME280;36409;52.168;20.878;2023-01-26T11:23:51;101008.34;;;0.61;79.81
50484;BME280;36409;52.168;20.878;2023-01-26T11:32:41;100990.30;;;0.59;79.67
50484;BME280;36409;52.168;20.878;2023-01-26T11:35:29;100989.48;;;0.60;79.75
50484;BME280;36409;52.168;20.878;2023-01-26T11:38:11;100991.24;;;0.61;79.63
50484;BME280;36409;52.168;20.878;2023-01-26T11:40:52;100984.44;;;0.64;79.87
50484;BME280;36409;52.168;20.878;2023-01-26T11:46:30;100978.55;;;0.66;79.82
50484;BME280;36409;52.168;20.878;2023-01-26T11:49:19;100975.26;;;0.70;80.46
50484;BME280;36409;52.168;20.878;2023-01-26T11:52:02;100975.38;;;0.73;79.79
50484;BME280;36409;52.168;20.878;2023-01-26T11:54:47;100970.35;;;0.76;79.42
50484;BME280;36409;52.168;20.878;2023-01-26T11:57:25;100973.78;;;0.77;80.23
50484;BME280;36409;52.168;20.878;2023-01-26T12:00:00;100976.31;;;0.75;79.52
50484;BME280;36409;52.168;20.878;2023-01-26T12:02:50;100972.77;;;0.72;79.65
50484;BME280;36409;52.168;20.878;2023-01-26T12:05:25;100964.16;;;0.71;79.56
50484;BME280;36409;52.168;20.878;2023-01-26T12:08:04;100967.62;;;0.72;79.67
50484;BME280;36409;52.168;20.878;2023-01-26T12:10:46;100964.16;;;0.71;79.13
50484;BME280;36409;52.168;20.878;2023-01-26T12:13:29;100965.14;;;0.75;79.99
50484;BME280;36409;52.168;20.878;2023-01-26T12:16:10;100963.62;;;0.80;80.13
50484;BME280;36409;52.168;20.878;2023-01-26T12:18:49;100956.06;;;0.85;79.17
50484;BME280;36409;52.168;20.878;2023-01-26T12:21:39;100953.49;;;0.85;79.29
50484;BME280;36409;52.168;20.878;2023-01-26T12:24:16;100945.90;;;0.88;80.07
50484;BME280;36409;52.168;20.878;2023-01-26T12:27:15;100949.41;;;0.90;80.06
50484;BME280;36409;52.168;20.878;2023-01-26T12:29:50;100954.55;;;0.90;79.83
50484;BME280;36409;52.168;20.878;2023-01-26T12:32:20;100945.98;;;0.91;79.42
50484;BME280;36409;52.168;20.878;2023-01-26T12:34:50;100958.83;;;0.91;79.71
50484;BME280;36409;52.168;20.878;2023-01-26T12:37:35;100954.47;;;0.88;79.95
50484;BME280;36409;52.168;20.878;2023-01-26T12:43:05;100958.09;;;0.94;78.99
50484;BME280;36409;52.168;20.878;2023-01-26T12:45:40;100960.50;;;0.89;78.85
50484;BME280;36409;52.168;20.878;2023-01-26T12:48:15;100955.29;;;0.87;79.28
50484;BME280;36409;52.168;20.878;2023-01-26T12:50:50;100953.49;;;0.85;79.62
50484;BME280;36409;52.168;20.878;2023-01-26T12:53:24;100949.13;;;0.82;79.65
50484;BME280;36409;52.168;20.878;2023-01-26T12:56:05;100954.20;;;0.81;79.19
50484;BME280;36409;52.168;20.878;2023-01-26T12:58:39;100953.99;;;0.74;79.65
50484;BME280;36409;52.168;20.878;2023-01-26T13:01:12;100951.31;;;0.71;79.25
50484;BME280;36409;52.168;20.878;2023-01-26T13:03:49;100951.31;;;0.71;79.65
50484;BME280;36409;52.168;20.878;2023-01-26T13:06:22;100954.66;;;0.69;79.41
50484;BME280;36409;52.168;20.878;2023-01-26T13:09:01;100953.77;;;0.68;79.55
50484;BME280;36409;52.168;20.878;2023-01-26T13:11:46;100948.63;;;0.68;78.71
50484;BME280;36409;52.168;20.878;2023-01-26T13:14:32;100945.97;;;0.65;79.11
50484;BME280;36409;52.168;20.878;2023-01-26T13:20:43;100943.23;;;0.60;78.64
50484;BME280;36409;52.168;20.878;2023-01-26T13:26:24;100937.94;;;0.56;79.14
50484;BME280;36409;52.168;20.878;2023-01-26T13:29:32;100936.11;;;0.53;79.11
50484;BME280;36409;52.168;20.878;2023-01-26T13:35:09;100926.48;;;0.48;79.00
50484;BME280;36409;52.168;20.878;2023-01-26T13:37:45;100924.73;;;0.46;78.44
50484;BME280;36409;52.168;20.878;2023-01-26T13:40:23;100927.22;;;0.43;79.47
50484;BME280;36409;52.168;20.878;2023-01-26T13:43:00;100934.84;;;0.42;78.97
50484;BME280;36409;52.168;20.878;2023-01-26T13:45:42;100931.30;;;0.38;79.24